sensor_id;sensor_type;location;lat;lon;timestamp;pressure;altitude;pressure_sealevel;temperature;humidity
12172;BME280;6149;52.418;13.668;2023-06-22T00:00:35;101409.09;;;18.93;100.00
12172;BME280;6149;52.418;13.668;2023-06-22T00:03:10;101405.78;;;18.89;100.00
12172;BME280;6149;52.418;13.668;2023-06-22T00:05:41;101410.53;;;18.86;100.00
12172;BME280;6149;52.418;13.668;2023-06-22T00:08:08;101407.22;;;18.82;100.00
12172;BME280;6149;52.418;13.668;2023-06-22T00:10:35;101411.94;;;18.79;100.00
12172;BME280;6149;52.418;13.668;2023-06-22T00:13:05;101420.22;;;18.76;100.00
12172;BME280;6149;52.418;13.668;2023-06-22T00:15:34;101423.97;;;18.73;100.00
12172;BME280;6149;52.418;13.668;2023-06-22T00:18:04;101425.78;;;18.73;100.00
12172;BME280;6149;52.418;13.668;2023-06-22T00:20:37;101427.63;;;18.72;100.00
12172;BME280;6149;52.418;13.668;2023-06-22T00:23:08;101427.72;;;18.70;100.00
12172;BME280;6149;52.418;13.668;2023-06-22T00:25:38;101418.94;;;18.68;100.00
12172;BME280;6149;52.418;13.668;2023-06-22T00:28:08;101437.69;;;18.68;100.00
12172;BME280;6149;52.418;13.668;2023-06-22T00:30:35;101437.69;;;18.68;100.00
12172;BME280;6149;52.418;13.668;2023-06-22T00:33:02;101448.53;;;18.67;100.00
12172;BME280;6149;52.418;13.668;2023-06-22T00:35:34;101460.22;;;18.66;100.00
12172;BME280;6149;52.418;13.668;2023-06-22T00:38:03;101460.31;;;18.64;100.00
12172;BME280;6149;52.418;13.668;2023-06-22T00:40:30;101456.03;;;18.62;100.00
12172;BME280;6149;52.418;13.668;2023-06-22T00:42:58;101448.97;;;18.61;100.00
12172;BME280;6149;52.418;13.668;2023-06-22T00:45:27;101448.31;;;18.57;100.00
12172;BME280;6149;52.418;13.668;2023-06-22T00:47:56;101453.06;;;18.54;100.00
12172;BME280;6149;52.418;13.668;2023-06-22T00:50:26;101456.19;;;18.48;100.00
12172;BME280;6149;52.418;13.668;2023-06-22T00:52:59;101454.69;;;18.44;100.00
12172;BME280;6149;52.418;13.668;2023-06-22T00:55:32;101450.41;;;18.41;100.00
12172;BME280;6149;52.418;13.668;2023-06-22T00:58:01;101446.88;;;18.41;100.00
12172;BME280;6149;52.418;13.668;2023-06-22T01:00:27;101449.88;;;18.36;100.00
12172;BME280;6149;52.418;13.668;2023-06-22T01:02:54;101449.03;;;18.35;100.00
12172;BME280;6149;52.418;13.668;2023-06-22T01:05:22;101459.97;;;18.32;100.00
12172;BME280;6149;52.418;13.668;2023-06-22T01:08:04;101455.69;;;18.30;100.00
12172;BME280;6149;52.418;13.668;2023-06-22T01:10:40;101469.19;;;18.28;100.00
12172;BME280;6149;52.418;13.668;2023-06-22T01:13:16;101471.00;;;18.28;100.00
12172;BME280;6149;52.418;13.668;2023-06-22T01:15:52;101461.25;;;18.27;100.00
12172;BME280;6149;52.418;13.668;2023-06-22T01:18:26;101457.72;;;18.26;100.00
12172;BME280;6149;52.418;13.668;2023-06-22T01:20:58;101465.63;;;18.28;100.00
12172;BME280;6149;52.418;13.668;2023-06-22T01:23:29;101467.47;;;18.27;100.00
12172;BME280;6149;52.418;13.668;2023-06-22T01:26:12;101468.44;;;18.26;100.00
12172;BME280;6149;52.418;13.668;2023-06-22T01:28:52;101464.03;;;18.25;100.00
12172;BME280;6149;52.418;13.668;2023-06-22T01:31:23;101476.47;;;18.26;100.00
12172;BME280;6149;52.418;13.668;2023-06-22T01:33:54;101463.94;;;18.27;100.00
12172;BME280;6149;52.418;13.668;2023-06-22T01:36:26;101464.03;;;18.25;100.00
12172;BME280;6149;52.418;13.668;2023-06-22T01:38:53;101464.16;;;18.24;100.00
12172;BME280;6149;52.418;13.668;2023-06-22T01:41:23;101476.69;;;18.23;100.00
12172;BME280;6149;52.418;13.668;2023-06-22T01:43:53;101481.19;;;18.23;100.00
12172;BME280;6149;52.418;13.668;2023-06-22T01:46:21;101475.81;;;18.23;100.00
12172;BME280;6149;52.418;13.668;2023-06-22T01:48:50;101477.63;;;18.22;100.00
12172;BME280;6149;52.418;13.668;2023-06-22T01:51:17;101476.03;;;18.20;100.00
12172;BME280;6149;52.418;13.668;2023-06-22T01:53:45;101476.88;;;18.20;100.00
12172;BME280;6149;52.418;13.668;2023-06-22T01:56:17;101482.38;;;18.19;100.00
12172;BME280;6149;52.418;13.668;2023-06-22T01:58:50;101489.56;;;18.18;100.00
12172;BME280;6149;52.418;13.668;2023-06-22T02:01:24;101476.28;;;18.17;100.00
12172;BME280;6149;52.418;13.668;2023-06-22T02:04:02;101473.59;;;18.17;100.00
12172;BME280;6149;52.418;13.668;2023-06-22T02:06:33;101474.47;;;18.17;100.00
12172;BME280;6149;52.418;13.668;2023-06-22T02:09:09;101474.34;;;18.19;100.00
12172;BME280;6149;52.418;13.668;2023-06-22T02:11:41;101478.72;;;18.20;100.00
12172;BME280;6149;52.418;13.668;2023-06-22T02:14:12;101486.53;;;18.23;100.00
12172;BME280;6149;52.418;13.668;2023-06-22T02:16:41;101480.09;;;18.25;100.00
12172;BME280;6149;52.418;13.668;2023-06-22T02:19:10;101486.09;;;18.29;100.00
12172;BME280;6149;52.418;13.668;2023-06-22T02:21:36;101477.00;;;18.31;100.00
12172;BME280;6149;52.418;13.668;2023-06-22T02:24:05;101489.31;;;18.34;100.00
12172;BME280;6149;52.418;13.668;2023-06-22T02:26:33;101482.13;;;18.34;100.00
12172;BME280;6149;52.418;13.668;2023-06-22T02:29:02;101488.22;;;18.36;100.00
12172;BME280;6149;52.418;13.668;2023-06-22T02:31:29;101502.38;;;18.38;100.00
12172;BME280;6149;52.418;13.668;2023-06-22T02:33:57;101501.41;;;18.40;100.00
12172;BME280;6149;52.418;13.668;2023-06-22T02:36:24;101502.38;;;18.38;100.00
12172;BME280;6149;52.418;13.668;2023-06-22T02:38:52;101508.69;;;18.37;100.00
12172;BME280;6149;52.418;13.668;2023-06-22T02:41:21;101507.09;;;18.35;100.00
12172;BME280;6149;52.418;13.668;2023-06-22T02:43:49;101510.72;;;18.34;100.00
12172;BME280;6149;52.418;13.668;2023-06-22T02:46:15;101505.38;;;18.34;100.00
12172;BME280;6149;52.418;13.668;2023-06-22T02:48:43;101502.81;;;18.32;100.00
12172;BME280;6149;52.418;13.668;2023-06-22T02:51:11;101508.16;;;18.32;100.00
12172;BME280;6149;52.418;13.668;2023-06-22T02:53:39;101513.50;;;18.32;100.00
12172;BME280;6149;52.418;13.668;2023-06-22T02:56:11;101502.06;;;18.30;100.00
12172;BME280;6149;52.418;13.668;2023-06-22T02:58:42;101511.81;;;18.31;100.00
12172;BME280;6149;52.418;13.668;2023-06-22T03:01:09;101506.34;;;18.33;100.00
12172;BME280;6149;52.418;13.668;2023-06-22T03:03:39;101510.72;;;18.34;100.00
12172;BME280;6149;52.418;13.668;2023-06-22T03:06:13;101511.59;;;18.34;100.00
12172;BME280;6149;52.418;13.668;2023-06-22T03:08:41;101514.25;;;18.34;100.00
12172;BME280;6149;52.418;13.668;2023-06-22T03:11:08;101512.66;;;18.32;100.00
12172;BME280;6149;52.418;13.668;2023-06-22T03:13:39;101509.22;;;18.30;100.00
12172;BME280;6149;52.418;13.668;2023-06-22T03:16:06;101502.16;;;18.29;100.00
12172;BME280;6149;52.418;13.668;2023-06-22T03:18:34;101501.31;;;18.28;100.00
12172;BME280;6149;52.418;13.668;2023-06-22T03:21:03;101503.13;;;18.28;100.00
12172;BME280;6149;52.418;13.668;2023-06-22T03:23:30;101504.84;;;18.29;100.00
12172;BME280;6149;52.418;13.668;2023-06-22T03:25:57;101507.41;;;18.30;100.00
12172;BME280;6149;52.418;13.668;2023-06-22T03:28:26;101508.16;;;18.32;100.00
12172;BME280;6149;52.418;13.668;2023-06-22T03:30:52;101505.28;;;18.35;100.00
12172;BME280;6149;52.418;13.668;2023-06-22T03:33:19;101505.28;;;18.35;100.00
12172;BME280;6149;52.418;13.668;2023-06-22T03:35:45;101502.47;;;18.37;100.00
12172;BME280;6149;52.418;13.668;2023-06-22T03:38:14;101501.63;;;18.36;100.00
12172;BME280;6149;52.418;13.668;2023-06-22T03:40:42;101499.91;;;18.35;100.00
12172;BME280;6149;52.418;13.668;2023-06-22T03:43:10;101494.56;;;18.35;100.00
12172;BME280;6149;52.418;13.668;2023-06-22T03:45:37;101500.97;;;18.33;100.00
12172;BME280;6149;52.418;13.668;2023-06-22T03:48:11;101507.31;;;18.32;100.00
12172;BME280;6149;52.418;13.668;2023-06-22T03:50:40;101513.50;;;18.32;100.00
12172;BME280;6149;52.418;13.668;2023-06-22T03:53:11;101515.22;;;18.33;100.00
12172;BME280;6149;52.418;13.668;2023-06-22T03:55:47;101507.19;;;18.33;100.00
12172;BME280;6149;52.418;13.668;2023-06-22T03:58:17;101509.88;;;18.33;100.00
12172;BME280;6149;52.418;13.668;2023-06-22T04:00:44;101508.91;;;18.34;100.00
12172;BME280;6149;52.418;13.668;2023-06-22T04:03:11;101506.97;;;18.36;100.00
12172;BME280;6149;52.418;13.668;2023-06-22T04:05:39;101506.00;;;18.37;100.00
12172;BME280;6149;52.418;13.668;2023-06-22T04:08:14;101504.09;;;18.40;100.00
12172;BME280;6149;52.418;13.668;2023-06-22T04:10:45;101514.69;;;18.41;100.00
12172;BME280;6149;52.418;13.668;2023-06-22T04:13:12;101511.78;;;18.44;100.00
12172;BME280;6149;52.418;13.668;2023-06-22T04:15:40;101516.06;;;18.47;100.00
12172;BME280;6149;52.418;13.668;2023-06-22T04:18:08;101513.06;;;18.51;100.00
12172;BME280;6149;52.418;13.668;2023-06-22T04:20:36;101516.28;;;18.56;100.00
12172;BME280;6149;52.418;13.668;2023-06-22T04:23:05;101511.56;;;18.60;100.00
12172;BME280;6149;52.418;13.668;2023-06-22T04:25:33;101512.09;;;18.65;100.00
12172;BME280;6149;52.418;13.668;2023-06-22T04:28:04;101512.63;;;18.70;100.00
12172;BME280;6149;52.418;13.668;2023-06-22T04:30:39;101518.50;;;18.75;100.00
12172;BME280;6149;52.418;13.668;2023-06-22T04:33:13;101519.13;;;18.79;100.00
12172;BME280;6149;52.418;13.668;2023-06-22T04:35:44;101521.50;;;18.83;100.00
12172;BME280;6149;52.418;13.668;2023-06-22T04:38:13;101525.44;;;18.90;100.00
12172;BME280;6149;52.418;13.668;2023-06-22T04:40:40;101525.81;;;18.97;100.00
12172;BME280;6149;52.418;13.668;2023-06-22T04:43:20;101524.41;;;19.04;100.00
12172;BME280;6149;52.418;13.668;2023-06-22T04:45:46;101531.13;;;19.10;100.00
12172;BME280;6149;52.418;13.668;2023-06-22T04:48:17;101532.28;;;19.18;100.00
12172;BME280;6149;52.418;13.668;2023-06-22T04:50:44;101530.97;;;19.24;100.00
12172;BME280;6149;52.418;13.668;2023-06-22T04:53:12;101535.41;;;19.36;100.00
12172;BME280;6149;52.418;13.668;2023-06-22T04:55:42;101540.44;;;19.41;100.00
12172;BME280;6149;52.418;13.668;2023-06-22T04:58:15;101546.50;;;19.55;100.00
12172;BME280;6149;52.418;13.668;2023-06-22T05:00:41;101534.69;;;19.58;100.00
12172;BME280;6149;52.418;13.668;2023-06-22T05:03:11;101532.28;;;19.66;100.00
12172;BME280;6149;52.418;13.668;2023-06-22T05:05:44;101536.34;;;19.83;100.00
12172;BME280;6149;52.418;13.668;2023-06-22T05:08:12;101544.38;;;19.83;100.00
12172;BME280;6149;52.418;13.668;2023-06-22T05:10:40;101547.22;;;19.92;100.00
12172;BME280;6149;52.418;13.668;2023-06-22T05:13:07;101542.25;;;19.99;100.00
12172;BME280;6149;52.418;13.668;2023-06-22T05:15:36;101544.31;;;20.07;100.00
12172;BME280;6149;52.418;13.668;2023-06-22T05:18:15;101550.69;;;20.17;100.00
12172;BME280;6149;52.418;13.668;2023-06-22T05:20:42;101543.25;;;20.31;100.00
12172;BME280;6149;52.418;13.668;2023-06-22T05:23:13;101543.66;;;20.38;100.00
12172;BME280;6149;52.418;13.668;2023-06-22T05:25:40;101541.81;;;20.61;100.00
12172;BME280;6149;52.418;13.668;2023-06-22T05:28:06;101538.88;;;20.64;100.00
12172;BME280;6149;52.418;13.668;2023-06-22T05:30:40;101549.16;;;20.70;100.00
12172;BME280;6149;52.418;13.668;2023-06-22T05:33:09;101546.09;;;20.75;100.00
12172;BME280;6149;52.418;13.668;2023-06-22T05:35:39;101553.25;;;20.85;100.00
12172;BME280;6149;52.418;13.668;2023-06-22T05:38:09;101559.97;;;21.02;100.00
12172;BME280;6149;52.418;13.668;2023-06-22T05:40:39;101566.69;;;21.08;100.00
12172;BME280;6149;52.418;13.668;2023-06-22T05:43:06;101562.78;;;21.12;99.98
12172;BME280;6149;52.418;13.668;2023-06-22T05:45:39;101562.88;;;21.21;100.00
12172;BME280;6149;52.418;13.668;2023-06-22T05:48:14;101561.00;;;21.33;99.15
12172;BME280;6149;52.418;13.668;2023-06-22T05:50:42;101558.16;;;21.46;97.55
12172;BME280;6149;52.418;13.668;2023-06-22T05:53:10;101564.41;;;21.46;97.87
12172;BME280;6149;52.418;13.668;2023-06-22T05:55:38;101570.69;;;21.56;98.23
12172;BME280;6149;52.418;13.668;2023-06-22T05:58:14;101574.06;;;21.69;96.61
12172;BME280;6149;52.418;13.668;2023-06-22T06:00:47;101567.41;;;21.85;95.64
12172;BME280;6149;52.418;13.668;2023-06-22T06:03:14;101577.84;;;21.99;92.86
12172;BME280;6149;52.418;13.668;2023-06-22T06:05:42;101569.13;;;22.07;92.44
12172;BME280;6149;52.418;13.668;2023-06-22T06:08:11;101572.88;;;22.15;91.78
12172;BME280;6149;52.418;13.668;2023-06-22T06:10:41;101578.03;;;22.28;93.04
12172;BME280;6149;52.418;13.668;2023-06-22T06:13:11;101574.53;;;22.37;89.26
12172;BME280;6149;52.418;13.668;2023-06-22T06:15:39;101575.66;;;22.55;88.59
12172;BME280;6149;52.418;13.668;2023-06-22T06:18:11;101575.44;;;22.78;85.95
12172;BME280;6149;52.418;13.668;2023-06-22T06:20:41;101570.56;;;22.92;86.05
12172;BME280;6149;52.418;13.668;2023-06-22T06:23:10;101565.88;;;23.04;82.14
12172;BME280;6149;52.418;13.668;2023-06-22T06:25:37;101565.78;;;23.15;80.52
12172;BME280;6149;52.418;13.668;2023-06-22T06:28:06;101567.34;;;23.27;82.53
12172;BME280;6149;52.418;13.668;2023-06-22T06:30:37;101564.66;;;23.47;80.12
12172;BME280;6149;52.418;13.668;2023-06-22T06:33:04;101565.28;;;23.70;76.26
12172;BME280;6149;52.418;13.668;2023-06-22T06:35:37;101567.66;;;23.92;73.34
12172;BME280;6149;52.418;13.668;2023-06-22T06:38:10;101576.03;;;23.98;74.42
12172;BME280;6149;52.418;13.668;2023-06-22T06:40:41;101571.50;;;23.99;76.56
12172;BME280;6149;52.418;13.668;2023-06-22T06:43:11;101563.94;;;24.12;74.05
12172;BME280;6149;52.418;13.668;2023-06-22T06:45:41;101572.69;;;24.43;70.04
12172;BME280;6149;52.418;13.668;2023-06-22T06:48:08;101572.34;;;24.56;69.22
12172;BME280;6149;52.418;13.668;2023-06-22T06:50:36;101575.69;;;24.77;68.90
12172;BME280;6149;52.418;13.668;2023-06-22T06:53:03;101577.69;;;24.75;63.88
12172;BME280;6149;52.418;13.668;2023-06-22T06:55:32;101576.16;;;25.00;62.14
12172;BME280;6149;52.418;13.668;2023-06-22T06:58:01;101578.03;;;24.90;62.88
12172;BME280;6149;52.418;13.668;2023-06-22T07:00:29;101569.34;;;24.96;61.60
12172;BME280;6149;52.418;13.668;2023-06-22T07:02:55;101572.78;;;25.16;62.91
12172;BME280;6149;52.418;13.668;2023-06-22T07:05:23;101568.06;;;25.36;64.11
12172;BME280;6149;52.418;13.668;2023-06-22T07:07:53;101563.91;;;25.41;60.31
12172;BME280;6149;52.418;13.668;2023-06-22T07:10:19;101563.44;;;25.63;61.47
12172;BME280;6149;52.418;13.668;2023-06-22T07:12:46;101555.63;;;25.78;59.76
12172;BME280;6149;52.418;13.668;2023-06-22T07:15:13;101556.09;;;25.91;61.93
12172;BME280;6149;52.418;13.668;2023-06-22T07:17:41;101540.03;;;25.98;60.32
12172;BME280;6149;52.418;13.668;2023-06-22T07:20:12;101535.56;;;26.15;60.15
12172;BME280;6149;52.418;13.668;2023-06-22T07:22:39;101534.03;;;26.38;58.83
12172;BME280;6149;52.418;13.668;2023-06-22T07:25:13;101523.09;;;26.56;57.43
12172;BME280;6149;52.418;13.668;2023-06-22T07:27:44;101529.22;;;26.58;55.69
12172;BME280;6149;52.418;13.668;2023-06-22T07:30:14;101535.94;;;26.46;58.27
12172;BME280;6149;52.418;13.668;2023-06-22T07:32:42;101533.63;;;26.59;57.19
12172;BME280;6149;52.418;13.668;2023-06-22T07:35:09;101527.88;;;26.62;54.72
12172;BME280;6149;52.418;13.668;2023-06-22T07:37:37;101527.78;;;26.46;54.50
12172;BME280;6149;52.418;13.668;2023-06-22T07:40:10;101524.44;;;26.52;57.06
12172;BME280;6149;52.418;13.668;2023-06-22T07:42:41;101525.56;;;26.41;53.55
12172;BME280;6149;52.418;13.668;2023-06-22T07:45:14;101528.25;;;26.33;55.60
12172;BME280;6149;52.418;13.668;2023-06-22T07:47:42;101535.47;;;26.24;51.88
12172;BME280;6149;52.418;13.668;2023-06-22T07:50:10;101528.50;;;26.22;54.17
12172;BME280;6149;52.418;13.668;2023-06-22T07:52:36;101530.84;;;26.17;53.26
12172;BME280;6149;52.418;13.668;2023-06-22T07:55:04;101532.91;;;26.23;53.66
12172;BME280;6149;52.418;13.668;2023-06-22T07:57:32;101521.53;;;26.19;52.31
12172;BME280;6149;52.418;13.668;2023-06-22T07:59:59;101528.19;;;26.25;52.01
12172;BME280;6149;52.418;13.668;2023-06-22T08:02:26;101526.47;;;26.24;55.11
12172;BME280;6149;52.418;13.668;2023-06-22T08:04:53;101521.22;;;26.22;54.37
12172;BME280;6149;52.418;13.668;2023-06-22T08:07:21;101521.91;;;26.24;52.86
12172;BME280;6149;52.418;13.668;2023-06-22T08:09:49;101522.00;;;26.15;55.58
12172;BME280;6149;52.418;13.668;2023-06-22T08:12:16;101523.00;;;26.40;54.10
12172;BME280;6149;52.418;13.668;2023-06-22T08:14:45;101526.25;;;26.43;55.22
12172;BME280;6149;52.418;13.668;2023-06-22T08:17:13;101527.31;;;26.50;51.04
12172;BME280;6149;52.418;13.668;2023-06-22T08:19:41;101532.41;;;26.53;49.39
12172;BME280;6149;52.418;13.668;2023-06-22T08:22:12;101529.41;;;26.64;53.08
12172;BME280;6149;52.418;13.668;2023-06-22T08:24:42;101532.34;;;26.71;49.29
12172;BME280;6149;52.418;13.668;2023-06-22T08:27:12;101529.09;;;26.76;48.75
12172;BME280;6149;52.418;13.668;2023-06-22T08:29:43;101527.63;;;26.89;47.02
12172;BME280;6149;52.418;13.668;2023-06-22T08:32:14;101532.66;;;26.76;49.03
12172;BME280;6149;52.418;13.668;2023-06-22T08:34:42;101529.16;;;26.92;47.89
12172;BME280;6149;52.418;13.668;2023-06-22T08:37:12;101522.81;;;27.09;48.68
12172;BME280;6149;52.418;13.668;2023-06-22T08:39:39;101516.00;;;27.13;48.82
12172;BME280;6149;52.418;13.668;2023-06-22T08:42:07;101526.88;;;27.05;46.94
12172;BME280;6149;52.418;13.668;2023-06-22T08:44:38;101520.94;;;27.10;46.07
12172;BME280;6149;52.418;13.668;2023-06-22T08:47:07;101516.78;;;26.89;46.78
12172;BME280;6149;52.418;13.668;2023-06-22T08:49:52;101524.56;;;26.84;46.62
12172;BME280;6149;52.418;13.668;2023-06-22T08:52:20;101519.84;;;26.94;47.13
12172;BME280;6149;52.418;13.668;2023-06-22T08:54:49;101524.50;;;27.18;48.44
12172;BME280;6149;52.418;13.668;2023-06-22T08:57:16;101529.38;;;26.99;46.04
12172;BME280;6149;52.418;13.668;2023-06-22T08:59:43;101524.59;;;26.92;47.52
12172;BME280;6149;52.418;13.668;2023-06-22T09:02:11;101523.28;;;26.96;47.22
12172;BME280;6149;52.418;13.668;2023-06-22T09:04:40;101518.72;;;27.05;45.58
12172;BME280;6149;52.418;13.668;2023-06-22T09:07:07;101512.63;;;27.27;45.23
12172;BME280;6149;52.418;13.668;2023-06-22T09:09:36;101523.34;;;27.53;45.80
12172;BME280;6149;52.418;13.668;2023-06-22T09:12:04;101519.13;;;27.75;44.00
12172;BME280;6149;52.418;13.668;2023-06-22T09:14:42;101515.03;;;27.87;44.19
12172;BME280;6149;52.418;13.668;2023-06-22T09:17:12;101511.28;;;28.21;45.21
12172;BME280;6149;52.418;13.668;2023-06-22T09:19:42;101515.88;;;28.59;42.41
12172;BME280;6149;52.418;13.668;2023-06-22T09:22:10;101506.59;;;28.85;41.37
12172;BME280;6149;52.418;13.668;2023-06-22T09:24:40;101523.44;;;28.88;40.97
12172;BME280;6149;52.418;13.668;2023-06-22T09:27:11;101512.59;;;28.72;40.04
12172;BME280;6149;52.418;13.668;2023-06-22T09:29:37;101502.72;;;28.32;41.70
12172;BME280;6149;52.418;13.668;2023-06-22T09:32:07;101512.94;;;28.22;43.22
12172;BME280;6149;52.418;13.668;2023-06-22T09:34:36;101501.22;;;28.13;44.04
12172;BME280;6149;52.418;13.668;2023-06-22T09:37:09;101504.13;;;28.12;42.27
12172;BME280;6149;52.418;13.668;2023-06-22T09:39:37;101499.53;;;28.12;43.40
12172;BME280;6149;52.418;13.668;2023-06-22T09:42:08;101507.50;;;28.22;40.51
12172;BME280;6149;52.418;13.668;2023-06-22T09:44:36;101505.63;;;28.14;40.85
12172;BME280;6149;52.418;13.668;2023-06-22T09:47:03;101511.75;;;28.24;41.21
12172;BME280;6149;52.418;13.668;2023-06-22T09:49:33;101521.97;;;28.14;42.00
12172;BME280;6149;52.418;13.668;2023-06-22T09:51:59;101507.47;;;28.30;39.94
12172;BME280;6149;52.418;13.668;2023-06-22T09:54:27;101513.31;;;28.03;42.27
12172;BME280;6149;52.418;13.668;2023-06-22T09:56:54;101506.88;;;27.87;42.10
12172;BME280;6149;52.418;13.668;2023-06-22T09:59:23;101502.31;;;27.80;42.06
12172;BME280;6149;52.418;13.668;2023-06-22T10:01:50;101504.34;;;27.78;40.82
12172;BME280;6149;52.418;13.668;2023-06-22T10:04:17;101496.72;;;27.73;44.25
12172;BME280;6149;52.418;13.668;2023-06-22T10:06:44;101508.72;;;28.03;45.65
12172;BME280;6149;52.418;13.668;2023-06-22T10:09:12;101498.34;;;28.07;41.93
12172;BME280;6149;52.418;13.668;2023-06-22T10:11:43;101502.59;;;28.09;40.90
12172;BME280;6149;52.418;13.668;2023-06-22T10:14:11;101508.38;;;28.06;41.47
12172;BME280;6149;52.418;13.668;2023-06-22T10:16:38;101503.44;;;28.02;43.16
12172;BME280;6149;52.418;13.668;2023-06-22T10:19:06;101497.66;;;28.05;44.42
12172;BME280;6149;52.418;13.668;2023-06-22T10:21:33;101501.94;;;27.99;43.14
12172;BME280;6149;52.418;13.668;2023-06-22T10:23:59;101494.13;;;27.88;42.22
12172;BME280;6149;52.418;13.668;2023-06-22T10:26:31;101495.97;;;27.95;43.07
12172;BME280;6149;52.418;13.668;2023-06-22T10:28:59;101493.41;;;28.10;42.67
12172;BME280;6149;52.418;13.668;2023-06-22T10:31:27;101501.59;;;27.94;42.19
12172;BME280;6149;52.418;13.668;2023-06-22T10:33:54;101499.72;;;27.86;43.03
12172;BME280;6149;52.418;13.668;2023-06-22T10:36:21;101489.53;;;27.88;44.77
12172;BME280;6149;52.418;13.668;2023-06-22T10:38:50;101491.56;;;27.86;44.29
12172;BME280;6149;52.418;13.668;2023-06-22T10:41:18;101491.06;;;27.91;44.61
12172;BME280;6149;52.418;13.668;2023-06-22T10:43:44;101482.72;;;28.01;42.64
12172;BME280;6149;52.418;13.668;2023-06-22T10:46:17;101475.13;;;27.80;42.70
12172;BME280;6149;52.418;13.668;2023-06-22T10:48:46;101477.47;;;27.91;41.86
12172;BME280;6149;52.418;13.668;2023-06-22T10:51:14;101467.91;;;28.03;43.15
12172;BME280;6149;52.418;13.668;2023-06-22T10:53:44;101467.78;;;27.88;41.97
12172;BME280;6149;52.418;13.668;2023-06-22T10:56:12;101469.47;;;27.89;42.70
12172;BME280;6149;52.418;13.668;2023-06-22T10:58:41;101460.16;;;27.84;42.57
12172;BME280;6149;52.418;13.668;2023-06-22T11:01:08;101470.88;;;27.77;42.46
12172;BME280;6149;52.418;13.668;2023-06-22T11:03:38;101462.22;;;27.66;42.79
12172;BME280;6149;52.418;13.668;2023-06-22T11:06:08;101457.28;;;27.77;45.35
12172;BME280;6149;52.418;13.668;2023-06-22T11:08:37;101452.00;;;27.84;42.35
12172;BME280;6149;52.418;13.668;2023-06-22T11:11:06;101449.94;;;27.86;43.55
12172;BME280;6149;52.418;13.668;2023-06-22T11:13:32;101445.66;;;28.08;42.46
12172;BME280;6149;52.418;13.668;2023-06-22T11:15:59;101446.81;;;28.13;45.10
12172;BME280;6149;52.418;13.668;2023-06-22T11:18:25;101443.09;;;28.06;45.00
12172;BME280;6149;52.418;13.668;2023-06-22T11:20:53;101447.88;;;27.96;42.72
12172;BME280;6149;52.418;13.668;2023-06-22T11:23:20;101446.47;;;28.16;43.99
12172;BME280;6149;52.418;13.668;2023-06-22T11:25:46;101436.84;;;27.89;42.88
12172;BME280;6149;52.418;13.668;2023-06-22T11:28:14;101431.47;;;27.73;43.20
12172;BME280;6149;52.418;13.668;2023-06-22T11:30:42;101425.34;;;27.79;42.58
12172;BME280;6149;52.418;13.668;2023-06-22T11:33:13;101423.91;;;28.00;43.33
12172;BME280;6149;52.418;13.668;2023-06-22T11:35:43;101423.25;;;27.89;46.15
12172;BME280;6149;52.418;13.668;2023-06-22T11:38:13;101430.53;;;27.97;41.93
12172;BME280;6149;52.418;13.668;2023-06-22T11:40:41;101428.75;;;27.73;42.08
12172;BME280;6149;52.418;13.668;2023-06-22T11:43:09;101414.97;;;27.75;43.98
12172;BME280;6149;52.418;13.668;2023-06-22T11:45:41;101417.34;;;27.78;42.42
12172;BME280;6149;52.418;13.668;2023-06-22T11:48:07;101412.59;;;27.80;42.63
12172;BME280;6149;52.418;13.668;2023-06-22T11:50:38;101413.63;;;27.79;42.86
12172;BME280;6149;52.418;13.668;2023-06-22T11:53:08;101415.66;;;27.77;42.12
12172;BME280;6149;52.418;13.668;2023-06-22T11:55:39;101413.09;;;27.83;43.88
12172;BME280;6149;52.418;13.668;2023-06-22T11:58:09;101416.78;;;27.90;41.98
12172;BME280;6149;52.418;13.668;2023-06-22T12:00:36;101409.38;;;27.68;43.14
12172;BME280;6149;52.418;13.668;2023-06-22T12:03:03;101421.03;;;27.93;43.22
12172;BME280;6149;52.418;13.668;2023-06-22T12:05:30;101420.88;;;27.86;43.34
12172;BME280;6149;52.418;13.668;2023-06-22T12:07:57;101424.84;;;27.68;42.84
12172;BME280;6149;52.418;13.668;2023-06-22T12:10:26;101416.16;;;27.80;44.29
12172;BME280;6149;52.418;13.668;2023-06-22T12:12:55;101418.50;;;27.91;43.39
12172;BME280;6149;52.418;13.668;2023-06-22T12:15:23;101421.72;;;27.95;43.10
12172;BME280;6149;52.418;13.668;2023-06-22T12:17:51;101412.34;;;27.98;42.12
12172;BME280;6149;52.418;13.668;2023-06-22T12:20:17;101399.63;;;27.90;44.03
12172;BME280;6149;52.418;13.668;2023-06-22T12:22:45;101408.25;;;28.02;44.15
12172;BME280;6149;52.418;13.668;2023-06-22T12:25:14;101395.81;;;28.15;43.65
12172;BME280;6149;52.418;13.668;2023-06-22T12:27:41;101388.34;;;28.09;42.04
12172;BME280;6149;52.418;13.668;2023-06-22T12:30:10;101389.06;;;28.03;44.36
12172;BME280;6149;52.418;13.668;2023-06-22T12:32:45;101383.97;;;28.00;43.17
12172;BME280;6149;52.418;13.668;2023-06-22T12:35:13;101382.03;;;28.17;43.06
12172;BME280;6149;52.418;13.668;2023-06-22T12:37:43;101372.38;;;28.06;43.31
12172;BME280;6149;52.418;13.668;2023-06-22T12:40:13;101373.72;;;28.10;43.43
12172;BME280;6149;52.418;13.668;2023-06-22T12:42:45;101372.19;;;28.16;43.06
12172;BME280;6149;52.418;13.668;2023-06-22T12:45:18;101374.34;;;28.28;43.09
12172;BME280;6149;52.418;13.668;2023-06-22T12:47:47;101367.16;;;28.36;43.16
12172;BME280;6149;52.418;13.668;2023-06-22T12:50:16;101369.88;;;28.36;42.47
12172;BME280;6149;52.418;13.668;2023-06-22T12:52:44;101360.44;;;28.54;43.52
12172;BME280;6149;52.418;13.668;2023-06-22T12:55:11;101358.84;;;28.60;42.58